sensor_id;sensor_type;location;lat;lon;timestamp;P1;durP1;ratioP1;P2;durP2;ratioP2
17253;SDS011;32542;52.832;13.816;2022-12-18T00:03:04;10.10;;;5.80;;
17253;SDS011;32542;52.832;13.816;2022-12-18T00:06:07;13.77;;;5.55;;
17253;SDS011;32542;52.832;13.816;2022-12-18T00:09:11;10.27;;;5.90;;
17253;SDS011;32542;52.832;13.816;2022-12-18T00:12:13;13.65;;;5.95;;
17253;SDS011;32542;52.832;13.816;2022-12-18T00:15:22;9.70;;;5.43;;
17253;SDS011;32542;52.832;13.816;2022-12-18T00:18:26;10.02;;;5.22;;
17253;SDS011;32542;52.832;13.816;2022-12-18T00:21:29;9.38;;;5.35;;
17253;SDS011;32542;52.832;13.816;2022-12-18T00:24:33;8.70;;;5.25;;
17253;SDS011;32542;52.832;13.816;2022-12-18T00:27:36;8.40;;;5.53;;
17253;SDS011;32542;52.832;13.816;2022-12-18T00:30:39;11.13;;;5.82;;
17253;SDS011;32542;52.832;13.816;2022-12-18T00:33:43;13.77;;;5.72;;
17253;SDS011;32542;52.832;13.816;2022-12-18T00:36:48;13.27;;;5.88;;
17253;SDS011;32542;52.832;13.816;2022-12-18T00:39:51;8.18;;;5.32;;
17253;SDS011;32542;52.832;13.816;2022-12-18T00:42:54;8.88;;;5.57;;
17253;SDS011;32542;52.832;13.816;2022-12-18T00:45:59;10.05;;;5.03;;
17253;SDS011;32542;52.832;13.816;2022-12-18T00:49:03;10.00;;;5.10;;
17253;SDS011;32542;52.832;13.816;2022-12-18T00:52:06;8.45;;;4.93;;
17253;SDS011;32542;52.832;13.816;2022-12-18T00:55:09;12.73;;;6.50;;
17253;SDS011;32542;52.832;13.816;2022-12-18T00:58:14;8.43;;;5.35;;
17253;SDS011;32542;52.832;13.816;2022-12-18T01:01:18;9.55;;;5.18;;
17253;SDS011;32542;52.832;13.816;2022-12-18T01:04:22;9.80;;;5.45;;
17253;SDS011;32542;52.832;13.816;2022-12-18T01:07:25;11.63;;;5.05;;
17253;SDS011;32542;52.832;13.816;2022-12-18T01:10:28;12.73;;;5.63;;
17253;SDS011;32542;52.832;13.816;2022-12-18T01:13:31;10.73;;;4.90;;
17253;SDS011;32542;52.832;13.816;2022-12-18T01:16:34;9.05;;;5.50;;
17253;SDS011;32542;52.832;13.816;2022-12-18T01:19:40;6.63;;;4.93;;
17253;SDS011;32542;52.832;13.816;2022-12-18T01:22:44;8.57;;;5.47;;
17253;SDS011;32542;52.832;13.816;2022-12-18T01:25:47;8.45;;;5.10;;
17253;SDS011;32542;52.832;13.816;2022-12-18T01:28:49;12.57;;;5.50;;
17253;SDS011;32542;52.832;13.816;2022-12-18T01:31:54;7.93;;;5.47;;
17253;SDS011;32542;52.832;13.816;2022-12-18T01:34:59;8.35;;;4.80;;
17253;SDS011;32542;52.832;13.816;2022-12-18T01:38:02;10.25;;;5.50;;
17253;SDS011;32542;52.832;13.816;2022-12-18T01:41:05;8.48;;;4.63;;
17253;SDS011;32542;52.832;13.816;2022-12-18T01:47:45;10.85;;;5.38;;
17253;SDS011;32542;52.832;13.816;2022-12-18T01:50:51;6.88;;;4.93;;
17253;SDS011;32542;52.832;13.816;2022-12-18T01:53:54;7.15;;;4.95;;
17253;SDS011;32542;52.832;13.816;2022-12-18T01:56:57;7.60;;;4.95;;
17253;SDS011;32542;52.832;13.816;2022-12-18T02:00:03;7.95;;;4.65;;
17253;SDS011;32542;52.832;13.816;2022-12-18T02:03:18;9.02;;;5.10;;
17253;SDS011;32542;52.832;13.816;2022-12-18T02:06:24;7.28;;;4.88;;
17253;SDS011;32542;52.832;13.816;2022-12-18T02:09:33;7.97;;;4.55;;
17253;SDS011;32542;52.832;13.816;2022-12-18T02:12:42;6.93;;;4.90;;
17253;SDS011;32542;52.832;13.816;2022-12-18T02:15:53;9.75;;;5.32;;
17253;SDS011;32542;52.832;13.816;2022-12-18T02:19:03;8.27;;;5.40;;
17253;SDS011;32542;52.832;13.816;2022-12-18T02:22:21;7.93;;;4.65;;
17253;SDS011;32542;52.832;13.816;2022-12-18T02:25:34;8.90;;;5.20;;
17253;SDS011;32542;52.832;13.816;2022-12-18T02:28:57;5.85;;;4.10;;
17253;SDS011;32542;52.832;13.816;2022-12-18T02:32:05;7.60;;;5.05;;
17253;SDS011;32542;52.832;13.816;2022-12-18T02:35:14;6.22;;;4.35;;
17253;SDS011;32542;52.832;13.816;2022-12-18T02:38:21;8.85;;;5.30;;
17253;SDS011;32542;52.832;13.816;2022-12-18T02:41:27;8.00;;;5.00;;
17253;SDS011;32542;52.832;13.816;2022-12-18T02:44:32;7.53;;;4.68;;
17253;SDS011;32542;52.832;13.816;2022-12-18T02:47:38;9.65;;;5.15;;
17253;SDS011;32542;52.832;13.816;2022-12-18T02:50:49;8.13;;;5.25;;
17253;SDS011;32542;52.832;13.816;2022-12-18T02:54:03;9.38;;;4.82;;
17253;SDS011;32542;52.832;13.816;2022-12-18T02:57:16;5.63;;;4.35;;
17253;SDS011;32542;52.832;13.816;2022-12-18T03:00:24;9.20;;;4.70;;
17253;SDS011;32542;52.832;13.816;2022-12-18T03:03:33;7.40;;;4.55;;
17253;SDS011;32542;52.832;13.816;2022-12-18T03:06:43;7.35;;;4.55;;
17253;SDS011;32542;52.832;13.816;2022-12-18T03:09:50;9.07;;;5.13;;
17253;SDS011;32542;52.832;13.816;2022-12-18T03:12:59;6.95;;;4.57;;
17253;SDS011;32542;52.832;13.816;2022-12-18T03:16:06;6.47;;;4.57;;
17253;SDS011;32542;52.832;13.816;2022-12-18T03:19:14;5.90;;;4.28;;
17253;SDS011;32542;52.832;13.816;2022-12-18T03:22:23;10.02;;;4.55;;
17253;SDS011;32542;52.832;13.816;2022-12-18T03:25:30;5.00;;;4.13;;
17253;SDS011;32542;52.832;13.816;2022-12-18T03:28:36;6.05;;;4.55;;
17253;SDS011;32542;52.832;13.816;2022-12-18T03:31:43;7.63;;;5.05;;
17253;SDS011;32542;52.832;13.816;2022-12-18T03:34:51;5.72;;;4.60;;
17253;SDS011;32542;52.832;13.816;2022-12-18T03:37:57;6.35;;;4.32;;
17253;SDS011;32542;52.832;13.816;2022-12-18T03:41:03;7.28;;;4.97;;
17253;SDS011;32542;52.832;13.816;2022-12-18T03:44:36;6.97;;;4.88;;
17253;SDS011;32542;52.832;13.816;2022-12-18T03:47:57;6.25;;;4.30;;
17253;SDS011;32542;52.832;13.816;2022-12-18T03:51:09;6.32;;;4.60;;
17253;SDS011;32542;52.832;13.816;2022-12-18T03:54:18;8.75;;;5.15;;
17253;SDS011;32542;52.832;13.816;2022-12-18T03:57:29;7.50;;;4.55;;
17253;SDS011;32542;52.832;13.816;2022-12-18T04:00:38;6.60;;;4.78;;
17253;SDS011;32542;52.832;13.816;2022-12-18T04:03:43;6.88;;;4.60;;
17253;SDS011;32542;52.832;13.816;2022-12-18T04:06:52;6.82;;;4.65;;
17253;SDS011;32542;52.832;13.816;2022-12-18T04:09:58;6.90;;;4.50;;
17253;SDS011;32542;52.832;13.816;2022-12-18T04:13:04;6.85;;;4.78;;
17253;SDS011;32542;52.832;13.816;2022-12-18T04:16:11;6.60;;;4.65;;
17253;SDS011;32542;52.832;13.816;2022-12-18T04:19:16;7.38;;;4.60;;
17253;SDS011;32542;52.832;13.816;2022-12-18T04:22:22;6.22;;;4.82;;
17253;SDS011;32542;52.832;13.816;2022-12-18T04:25:31;6.70;;;4.45;;
17253;SDS011;32542;52.832;13.816;2022-12-18T04:28:44;6.53;;;4.57;;
17253;SDS011;32542;52.832;13.816;2022-12-18T04:31:48;7.32;;;5.22;;
17253;SDS011;32542;52.832;13.816;2022-12-18T04:34:51;7.05;;;4.75;;
17253;SDS011;32542;52.832;13.816;2022-12-18T04:37:54;5.72;;;4.63;;
17253;SDS011;32542;52.832;13.816;2022-12-18T04:40:57;6.53;;;4.70;;
17253;SDS011;32542;52.832;13.816;2022-12-18T04:44:01;6.70;;;4.82;;
17253;SDS011;32542;52.832;13.816;2022-12-18T04:47:05;6.25;;;4.82;;
17253;SDS011;32542;52.832;13.816;2022-12-18T04:50:09;6.95;;;4.45;;
17253;SDS011;32542;52.832;13.816;2022-12-18T04:53:12;7.65;;;4.43;;
17253;SDS011;32542;52.832;13.816;2022-12-18T04:56:15;6.32;;;4.47;;
17253;SDS011;32542;52.832;13.816;2022-12-18T04:59:18;6.82;;;4.40;;
17253;SDS011;32542;52.832;13.816;2022-12-18T05:02:22;7.18;;;4.70;;
17253;SDS011;32542;52.832;13.816;2022-12-18T05:05:25;7.57;;;4.43;;
17253;SDS011;32542;52.832;13.816;2022-12-18T05:08:28;6.03;;;4.47;;
17253;SDS011;32542;52.832;13.816;2022-12-18T05:11:31;8.55;;;4.70;;
17253;SDS011;32542;52.832;13.816;2022-12-18T05:14:34;7.53;;;4.95;;
17253;SDS011;32542;52.832;13.816;2022-12-18T05:17:38;5.78;;;4.63;;
17253;SDS011;32542;52.832;13.816;2022-12-18T05:20:41;5.47;;;4.32;;
17253;SDS011;32542;52.832;13.816;2022-12-18T05:23:44;7.03;;;4.85;;
17253;SDS011;32542;52.832;13.816;2022-12-18T05:26:47;7.05;;;4.65;;
17253;SDS011;32542;52.832;13.816;2022-12-18T05:29:50;5.68;;;4.35;;
17253;SDS011;32542;52.832;13.816;2022-12-18T05:32:54;5.50;;;4.40;;
17253;SDS011;32542;52.832;13.816;2022-12-18T05:35:58;5.38;;;4.07;;
17253;SDS011;32542;52.832;13.816;2022-12-18T05:39:06;6.07;;;4.60;;
17253;SDS011;32542;52.832;13.816;2022-12-18T05:42:09;7.65;;;4.97;;
17253;SDS011;32542;52.832;13.816;2022-12-18T05:45:12;5.78;;;4.22;;
17253;SDS011;32542;52.832;13.816;2022-12-18T05:48:17;6.63;;;4.53;;
17253;SDS011;32542;52.832;13.816;2022-12-18T05:51:21;6.05;;;4.32;;
17253;SDS011;32542;52.832;13.816;2022-12-18T05:54:26;6.28;;;4.38;;
17253;SDS011;32542;52.832;13.816;2022-12-18T05:57:29;5.63;;;4.60;;
17253;SDS011;32542;52.832;13.816;2022-12-18T06:00:33;7.10;;;4.45;;
17253;SDS011;32542;52.832;13.816;2022-12-18T06:03:39;5.95;;;4.78;;
17253;SDS011;32542;52.832;13.816;2022-12-18T06:06:42;5.75;;;4.57;;
17253;SDS011;32542;52.832;13.816;2022-12-18T06:09:45;5.63;;;4.30;;
17253;SDS011;32542;52.832;13.816;2022-12-18T06:12:48;5.13;;;4.20;;
17253;SDS011;32542;52.832;13.816;2022-12-18T06:15:51;6.80;;;4.50;;
17253;SDS011;32542;52.832;13.816;2022-12-18T06:18:56;6.80;;;4.60;;
17253;SDS011;32542;52.832;13.816;2022-12-18T06:22:00;14.73;;;6.00;;
17253;SDS011;32542;52.832;13.816;2022-12-18T06:25:03;57.17;;;9.65;;
17253;SDS011;32542;52.832;13.816;2022-12-18T06:28:08;26.52;;;7.65;;
17253;SDS011;32542;52.832;13.816;2022-12-18T06:31:11;21.88;;;7.55;;
17253;SDS011;32542;52.832;13.816;2022-12-18T06:34:16;21.48;;;9.07;;
17253;SDS011;32542;52.832;13.816;2022-12-18T06:37:18;16.88;;;9.07;;
17253;SDS011;32542;52.832;13.816;2022-12-18T06:40:21;15.48;;;8.80;;
17253;SDS011;32542;52.832;13.816;2022-12-18T06:43:24;12.05;;;8.05;;
17253;SDS011;32542;52.832;13.816;2022-12-18T06:46:27;17.13;;;7.45;;
17253;SDS011;32542;52.832;13.816;2022-12-18T06:49:32;13.35;;;7.30;;
17253;SDS011;32542;52.832;13.816;2022-12-18T06:52:34;10.68;;;7.05;;
17253;SDS011;32542;52.832;13.816;2022-12-18T06:55:38;14.73;;;6.97;;
17253;SDS011;32542;52.832;13.816;2022-12-18T06:58:41;12.48;;;6.63;;
17253;SDS011;32542;52.832;13.816;2022-12-18T07:01:44;10.15;;;6.18;;
17253;SDS011;32542;52.832;13.816;2022-12-18T07:04:49;12.60;;;6.72;;
17253;SDS011;32542;52.832;13.816;2022-12-18T07:07:52;14.30;;;5.95;;
17253;SDS011;32542;52.832;13.816;2022-12-18T07:10:55;15.68;;;6.80;;
17253;SDS011;32542;52.832;13.816;2022-12-18T07:13:58;10.88;;;6.30;;
17253;SDS011;32542;52.832;13.816;2022-12-18T07:17:01;9.57;;;5.95;;
17253;SDS011;32542;52.832;13.816;2022-12-18T07:20:06;9.80;;;5.68;;
17253;SDS011;32542;52.832;13.816;2022-12-18T07:23:10;9.15;;;5.82;;
17253;SDS011;32542;52.832;13.816;2022-12-18T07:26:13;11.48;;;6.00;;
17253;SDS011;32542;52.832;13.816;2022-12-18T07:29:17;11.63;;;6.00;;
17253;SDS011;32542;52.832;13.816;2022-12-18T07:32:20;14.82;;;6.25;;
17253;SDS011;32542;52.832;13.816;2022-12-18T07:35:24;17.00;;;6.65;;
17253;SDS011;32542;52.832;13.816;2022-12-18T07:38:27;18.13;;;6.32;;
17253;SDS011;32542;52.832;13.816;2022-12-18T07:41:31;15.52;;;6.57;;
17253;SDS011;32542;52.832;13.816;2022-12-18T07:44:42;13.48;;;5.90;;
17253;SDS011;32542;52.832;13.816;2022-12-18T07:47:45;9.98;;;5.60;;
17253;SDS011;32542;52.832;13.816;2022-12-18T07:50:50;10.75;;;5.90;;
17253;SDS011;32542;52.832;13.816;2022-12-18T07:53:53;12.48;;;6.00;;
17253;SDS011;32542;52.832;13.816;2022-12-18T07:56:56;10.10;;;5.78;;
17253;SDS011;32542;52.832;13.816;2022-12-18T07:59:58;11.07;;;6.13;;
17253;SDS011;32542;52.832;13.816;2022-12-18T08:03:12;11.40;;;6.18;;
17253;SDS011;32542;52.832;13.816;2022-12-18T08:06:16;11.73;;;5.75;;
17253;SDS011;32542;52.832;13.816;2022-12-18T08:09:23;12.85;;;5.57;;
17253;SDS011;32542;52.832;13.816;2022-12-18T08:12:26;8.43;;;5.28;;
17253;SDS011;32542;52.832;13.816;2022-12-18T08:15:28;11.27;;;6.10;;
17253;SDS011;32542;52.832;13.816;2022-12-18T08:18:33;10.48;;;5.38;;
17253;SDS011;32542;52.832;13.816;2022-12-18T08:24:42;10.30;;;5.75;;
17253;SDS011;32542;52.832;13.816;2022-12-18T08:27:45;7.15;;;5.60;;
17253;SDS011;32542;52.832;13.816;2022-12-18T08:30:51;8.70;;;5.50;;
17253;SDS011;32542;52.832;13.816;2022-12-18T08:33:54;10.93;;;5.35;;
17253;SDS011;32542;52.832;13.816;2022-12-18T08:36:59;10.18;;;5.50;;
17253;SDS011;32542;52.832;13.816;2022-12-18T08:40:02;11.40;;;5.80;;
17253;SDS011;32542;52.832;13.816;2022-12-18T08:43:06;9.68;;;5.72;;
17253;SDS011;32542;52.832;13.816;2022-12-18T08:46:31;8.57;;;4.97;;
17253;SDS011;32542;52.832;13.816;2022-12-18T08:49:36;8.45;;;5.35;;
17253;SDS011;32542;52.832;13.816;2022-12-18T08:52:40;9.82;;;5.50;;
17253;SDS011;32542;52.832;13.816;2022-12-18T08:55:43;8.35;;;5.47;;
17253;SDS011;32542;52.832;13.816;2022-12-18T08:58:51;9.32;;;5.38;;
17253;SDS011;32542;52.832;13.816;2022-12-18T09:01:56;10.98;;;5.65;;
17253;SDS011;32542;52.832;13.816;2022-12-18T09:04:58;11.18;;;4.65;;
17253;SDS011;32542;52.832;13.816;2022-12-18T09:08:03;8.45;;;5.47;;
17253;SDS011;32542;52.832;13.816;2022-12-18T09:11:09;8.85;;;5.43;;
17253;SDS011;32542;52.832;13.816;2022-12-18T09:14:15;7.97;;;5.15;;
17253;SDS011;32542;52.832;13.816;2022-12-18T09:17:18;8.32;;;5.43;;
17253;SDS011;32542;52.832;13.816;2022-12-18T09:20:21;7.97;;;5.60;;
17253;SDS011;32542;52.832;13.816;2022-12-18T09:23:25;6.95;;;5.03;;
17253;SDS011;32542;52.832;13.816;2022-12-18T09:26:28;10.98;;;4.88;;
17253;SDS011;32542;52.832;13.816;2022-12-18T09:29:31;8.48;;;4.82;;
17253;SDS011;32542;52.832;13.816;2022-12-18T09:32:34;8.32;;;5.13;;
17253;SDS011;32542;52.832;13.816;2022-12-18T09:35:37;7.65;;;5.15;;
17253;SDS011;32542;52.832;13.816;2022-12-18T09:38:42;7.82;;;5.35;;
17253;SDS011;32542;52.832;13.816;2022-12-18T09:41:46;8.43;;;5.28;;
17253;SDS011;32542;52.832;13.816;2022-12-18T09:44:54;8.00;;;5.70;;
17253;SDS011;32542;52.832;13.816;2022-12-18T09:47:58;8.15;;;5.00;;
17253;SDS011;32542;52.832;13.816;2022-12-18T09:51:02;8.20;;;5.45;;
17253;SDS011;32542;52.832;13.816;2022-12-18T09:54:14;9.10;;;5.28;;
17253;SDS011;32542;52.832;13.816;2022-12-18T09:57:21;8.82;;;5.78;;
17253;SDS011;32542;52.832;13.816;2022-12-18T10:00:26;8.60;;;5.60;;
17253;SDS011;32542;52.832;13.816;2022-12-18T10:03:29;9.98;;;6.25;;
17253;SDS011;32542;52.832;13.816;2022-12-18T10:06:34;9.52;;;6.55;;
17253;SDS011;32542;52.832;13.816;2022-12-18T10:09:44;10.00;;;6.68;;
17253;SDS011;32542;52.832;13.816;2022-12-18T10:12:53;9.68;;;5.63;;
17253;SDS011;32542;52.832;13.816;2022-12-18T10:16:08;8.85;;;6.30;;
17253;SDS011;32542;52.832;13.816;2022-12-18T10:19:18;11.07;;;6.43;;
17253;SDS011;32542;52.832;13.816;2022-12-18T10:22:40;9.73;;;6.63;;
17253;SDS011;32542;52.832;13.816;2022-12-18T10:25:53;10.02;;;6.72;;
17253;SDS011;32542;52.832;13.816;2022-12-18T10:29:04;8.27;;;5.95;;
17253;SDS011;32542;52.832;13.816;2022-12-18T10:32:14;10.07;;;6.93;;
17253;SDS011;32542;52.832;13.816;2022-12-18T10:35:19;10.85;;;6.45;;
17253;SDS011;32542;52.832;13.816;2022-12-18T10:38:24;9.98;;;6.20;;
17253;SDS011;32542;52.832;13.816;2022-12-18T10:41:29;10.02;;;6.47;;
17253;SDS011;32542;52.832;13.816;2022-12-18T10:44:33;8.13;;;6.07;;
17253;SDS011;32542;52.832;13.816;2022-12-18T10:47:36;11.35;;;6.85;;
17253;SDS011;32542;52.832;13.816;2022-12-18T10:50:46;10.68;;;7.10;;
17253;SDS011;32542;52.832;13.816;2022-12-18T10:54:13;10.75;;;7.40;;
17253;SDS011;32542;52.832;13.816;2022-12-18T10:57:30;11.60;;;7.72;;
17253;SDS011;32542;52.832;13.816;2022-12-18T11:00:36;10.40;;;6.75;;
17253;SDS011;32542;52.832;13.816;2022-12-18T11:03:40;9.88;;;6.65;;
17253;SDS011;32542;52.832;13.816;2022-12-18T11:06:52;13.48;;;7.00;;
17253;SDS011;32542;52.832;13.816;2022-12-18T11:10:00;11.02;;;7.22;;
17253;SDS011;32542;52.832;13.816;2022-12-18T11:13:15;11.13;;;7.22;;
17253;SDS011;32542;52.832;13.816;2022-12-18T11:16:20;10.07;;;6.75;;
17253;SDS011;32542;52.832;13.816;2022-12-18T11:19:32;10.80;;;7.05;;
17253;SDS011;32542;52.832;13.816;2022-12-18T11:22:37;11.15;;;7.13;;
17253;SDS011;32542;52.832;13.816;2022-12-18T11:25:40;10.25;;;6.93;;
17253;SDS011;32542;52.832;13.816;2022-12-18T11:29:07;12.18;;;7.40;;
17253;SDS011;32542;52.832;13.816;2022-12-18T11:35:40;11.48;;;7.03;;
17253;SDS011;32542;52.832;13.816;2022-12-18T11:38:49;11.40;;;7.22;;
17253;SDS011;32542;52.832;13.816;2022-12-18T11:41:58;9.90;;;7.10;;
17253;SDS011;32542;52.832;13.816;2022-12-18T11:45:20;11.45;;;7.55;;
17253;SDS011;32542;52.832;13.816;2022-12-18T11:48:32;11.05;;;7.13;;
17253;SDS011;32542;52.832;13.816;2022-12-18T11:51:37;11.57;;;7.20;;
17253;SDS011;32542;52.832;13.816;2022-12-18T11:54:49;11.07;;;7.00;;
17253;SDS011;32542;52.832;13.816;2022-12-18T11:57:54;10.98;;;7.07;;
17253;SDS011;32542;52.832;13.816;2022-12-18T12:01:10;9.20;;;6.35;;
17253;SDS011;32542;52.832;13.816;2022-12-18T12:04:30;9.32;;;6.13;;
17253;SDS011;32542;52.832;13.816;2022-12-18T12:07:44;9.27;;;6.60;;
17253;SDS011;32542;52.832;13.816;2022-12-18T12:10:55;10.80;;;7.38;;
17253;SDS011;32542;52.832;13.816;2022-12-18T12:14:14;9.98;;;6.97;;
17253;SDS011;32542;52.832;13.816;2022-12-18T12:17:32;8.27;;;6.20;;
17253;SDS011;32542;52.832;13.816;2022-12-18T12:20:42;8.63;;;6.55;;
17253;SDS011;32542;52.832;13.816;2022-12-18T12:23:53;11.00;;;7.07;;
17253;SDS011;32542;52.832;13.816;2022-12-18T12:27:06;10.13;;;6.53;;
17253;SDS011;32542;52.832;13.816;2022-12-18T12:30:20;12.48;;;7.13;;
17253;SDS011;32542;52.832;13.816;2022-12-18T12:33:29;10.93;;;6.80;;
17253;SDS011;32542;52.832;13.816;2022-12-18T12:36:41;12.85;;;6.82;;
17253;SDS011;32542;52.832;13.816;2022-12-18T12:39:55;9.40;;;6.80;;
17253;SDS011;32542;52.832;13.816;2022-12-18T12:42:59;9.48;;;6.60;;
17253;SDS011;32542;52.832;13.816;2022-12-18T12:46:16;9.00;;;6.38;;
17253;SDS011;32542;52.832;13.816;2022-12-18T12:49:26;9.50;;;6.85;;
17253;SDS011;32542;52.832;13.816;2022-12-18T12:52:32;9.32;;;6.43;;
17253;SDS011;32542;52.832;13.816;2022-12-18T12:55:40;11.27;;;6.80;;
17253;SDS011;32542;52.832;13.816;2022-12-18T12:58:46;10.43;;;7.13;;
17253;SDS011;32542;52.832;13.816;2022-12-18T13:01:58;12.05;;;7.03;;
17253;SDS011;32542;52.832;13.816;2022-12-18T13:05:08;9.60;;;6.65;;
17253;SDS011;32542;52.832;13.816;2022-12-18T13:08:22;9.80;;;6.72;;
17253;SDS011;32542;52.832;13.816;2022-12-18T13:11:32;10.50;;;7.45;;
17253;SDS011;32542;52.832;13.816;2022-12-18T13:15:11;10.25;;;7.03;;
17253;SDS011;32542;52.832;13.816;2022-12-18T13:18:23;8.45;;;6.38;;
17253;SDS011;32542;52.832;13.816;2022-12-18T13:21:30;9.48;;;6.63;;
17253;SDS011;32542;52.832;13.816;2022-12-18T13:24:36;11.20;;;6.78;;
17253;SDS011;32542;52.832;13.816;2022-12-18T13:27:46;10.30;;;7.18;;
17253;SDS011;32542;52.832;13.816;2022-12-18T13:30:59;10.25;;;6.85;;
17253;SDS011;32542;52.832;13.816;2022-12-18T13:34:09;10.10;;;6.32;;
17253;SDS011;32542;52.832;13.816;2022-12-18T13:37:42;11.98;;;6.82;;
17253;SDS011;32542;52.832;13.816;2022-12-18T13:40:53;10.68;;;6.70;;
17253;SDS011;32542;52.832;13.816;2022-12-18T13:43:58;10.43;;;6.43;;
17253;SDS011;32542;52.832;13.816;2022-12-18T13:47:24;11.63;;;7.13;;
17253;SDS011;32542;52.832;13.816;2022-12-18T13:50:29;9.98;;;6.57;;
17253;SDS011;32542;52.832;13.816;2022-12-18T13:53:38;9.10;;;6.10;;
17253;SDS011;32542;52.832;13.816;2022-12-18T13:56:47;9.45;;;6.35;;
17253;SDS011;32542;52.832;13.816;2022-12-18T13:59:51;9.93;;;6.55;;
17253;SDS011;32542;52.832;13.816;2022-12-18T14:02:54;9.88;;;7.22;;
17253;SDS011;32542;52.832;13.816;2022-12-18T14:05:59;9.68;;;6.70;;
17253;SDS011;32542;52.832;13.816;2022-12-18T14:09:09;10.30;;;6.75;;
17253;SDS011;32542;52.832;13.816;2022-12-18T14:12:22;9.60;;;7.15;;
17253;SDS011;32542;52.832;13.816;2022-12-18T14:15:46;11.07;;;7.13;;
17253;SDS011;32542;52.832;13.816;2022-12-18T14:18:52;10.18;;;6.80;;
17253;SDS011;32542;52.832;13.816;2022-12-18T14:22:13;9.75;;;6.45;;
17253;SDS011;32542;52.832;13.816;2022-12-18T14:25:20;10.23;;;6.72;;
17253;SDS011;32542;52.832;13.816;2022-12-18T14:28:27;9.80;;;7.03;;
17253;SDS011;32542;52.832;13.816;2022-12-18T14:31:30;9.35;;;6.40;;
17253;SDS011;32542;52.832;13.816;2022-12-18T14:34:33;8.35;;;6.38;;
17253;SDS011;32542;52.832;13.816;2022-12-18T14:37:36;10.25;;;6.60;;
17253;SDS011;32542;52.832;13.816;2022-12-18T14:40:41;9.07;;;6.45;;
17253;SDS011;32542;52.832;13.816;2022-12-18T14:43:44;9.60;;;6.75;;
17253;SDS011;32542;52.832;13.816;2022-12-18T14:46:49;8.95;;;6.22;;
17253;SDS011;32542;52.832;13.816;2022-12-18T14:49:54;9.15;;;6.43;;
17253;SDS011;32542;52.832;13.816;2022-12-18T14:52:57;8.73;;;6.25;;
17253;SDS011;32542;52.832;13.816;2022-12-18T14:56:01;10.10;;;6.55;;
17253;SDS011;32542;52.832;13.816;2022-12-18T14:59:06;9.85;;;6.63;;
17253;SDS011;32542;52.832;13.816;2022-12-18T15:02:25;8.68;;;5.85;;
17253;SDS011;32542;52.832;13.816;2022-12-18T15:05:30;8.27;;;6.00;;
17253;SDS011;32542;52.832;13.816;2022-12-18T15:08:35;9.68;;;6.45;;
17253;SDS011;32542;52.832;13.816;2022-12-18T15:11:46;9.43;;;6.55;;
17253;SDS011;32542;52.832;13.816;2022-12-18T15:14:49;8.90;;;6.18;;
17253;SDS011;32542;52.832;13.816;2022-12-18T15:17:56;9.73;;;6.70;;
17253;SDS011;32542;52.832;13.816;2022-12-18T15:21:06;8.90;;;6.15;;
17253;SDS011;32542;52.832;13.816;2022-12-18T15:24:15;8.07;;;6.47;;
17253;SDS011;32542;52.832;13.816;2022-12-18T15:27:26;8.77;;;5.78;;
17253;SDS011;32542;52.832;13.816;2022-12-18T15:30:32;9.23;;;6.32;;
17253;SDS011;32542;52.832;13.816;2022-12-18T15:33:35;9.70;;;6.65;;
17253;SDS011;32542;52.832;13.816;2022-12-18T15:36:40;10.77;;;6.85;;
17253;SDS011;32542;52.832;13.816;2022-12-18T15:39:43;9.48;;;6.15;;
17253;SDS011;32542;52.832;13.816;2022-12-18T15:42:47;10.68;;;6.18;;
17253;SDS011;32542;52.832;13.816;2022-12-18T15:46:09;9.50;;;5.95;;
17253;SDS011;32542;52.832;13.816;2022-12-18T15:49:15;8.60;;;6.35;;
17253;SDS011;32542;52.832;13.816;2022-12-18T15:52:18;9.13;;;6.13;;
17253;SDS011;32542;52.832;13.816;2022-12-18T15:55:27;7.68;;;5.80;;
17253;SDS011;32542;52.832;13.816;2022-12-18T15:58:48;9.38;;;6.50;;
17253;SDS011;32542;52.832;13.816;2022-12-18T16:01:51;9.38;;;6.38;;
17253;SDS011;32542;52.832;13.816;2022-12-18T16:04:56;9.80;;;6.00;;
17253;SDS011;32542;52.832;13.816;2022-12-18T16:07:59;9.40;;;6.13;;
17253;SDS011;32542;52.832;13.816;2022-12-18T16:11:02;9.10;;;6.55;;
17253;SDS011;32542;52.832;13.816;2022-12-18T16:14:09;9.38;;;6.07;;
17253;SDS011;32542;52.832;13.816;2022-12-18T16:17:18;12.05;;;6.63;;
17253;SDS011;32542;52.832;13.816;2022-12-18T16:20:21;9.55;;;6.50;;
17253;SDS011;32542;52.832;13.816;2022-12-18T16:23:24;9.95;;;6.80;;
17253;SDS011;32542;52.832;13.816;2022-12-18T16:26:28;9.35;;;6.82;;
17253;SDS011;32542;52.832;13.816;2022-12-18T16:29:35;11.30;;;6.45;;
17253;SDS011;32542;52.832;13.816;2022-12-18T16:32:38;9.20;;;6.70;;
17253;SDS011;32542;52.832;13.816;2022-12-18T16:35:41;9.20;;;6.50;;
17253;SDS011;32542;52.832;13.816;2022-12-18T16:38:44;10.23;;;6.90;;
17253;SDS011;32542;52.832;13.816;2022-12-18T16:41:47;9.40;;;6.75;;
17253;SDS011;32542;52.832;13.816;2022-12-18T16:44:52;9.20;;;6.82;;
17253;SDS011;32542;52.832;13.816;2022-12-18T16:47:55;11.60;;;7.05;;
17253;SDS011;32542;52.832;13.816;2022-12-18T16:50:59;11.32;;;7.70;;
17253;SDS011;32542;52.832;13.816;2022-12-18T16:54:04;11.10;;;7.40;;
17253;SDS011;32542;52.832;13.816;2022-12-18T16:57:13;11.15;;;7.32;;
17253;SDS011;32542;52.832;13.816;2022-12-18T17:00:19;10.00;;;7.20;;
17253;SDS011;32542;52.832;13.816;2022-12-18T17:03:22;10.18;;;7.40;;
17253;SDS011;32542;52.832;13.816;2022-12-18T17:06:27;10.52;;;6.93;;
17253;SDS011;32542;52.832;13.816;2022-12-18T17:09:31;10.10;;;6.75;;
17253;SDS011;32542;52.832;13.816;2022-12-18T17:12:34;8.10;;;6.20;;
17253;SDS011;32542;52.832;13.816;2022-12-18T17:15:39;8.93;;;6.22;;
17253;SDS011;32542;52.832;13.816;2022-12-18T17:18:42;10.73;;;6.50;;
17253;SDS011;32542;52.832;13.816;2022-12-18T17:21:46;8.77;;;6.30;;
17253;SDS011;32542;52.832;13.816;2022-12-18T17:24:51;9.75;;;6.97;;
17253;SDS011;32542;52.832;13.816;2022-12-18T17:27:54;8.95;;;6.78;;
17253;SDS011;32542;52.832;13.816;2022-12-18T17:30:58;10.52;;;7.03;;
17253;SDS011;32542;52.832;13.816;2022-12-18T17:34:02;10.23;;;6.95;;
17253;SDS011;32542;52.832;13.816;2022-12-18T17:37:05;9.00;;;6.68;;
17253;SDS011;32542;52.832;13.816;2022-12-18T17:40:08;9.18;;;6.78;;
17253;SDS011;32542;52.832;13.816;2022-12-18T17:43:11;9.35;;;6.47;;
17253;SDS011;32542;52.832;13.816;2022-12-18T17:46:16;9.93;;;6.70;;
17253;SDS011;32542;52.832;13.816;2022-12-18T17:49:19;7.32;;;5.72;;
17253;SDS011;32542;52.832;13.816;2022-12-18T17:52:22;8.05;;;6.13;;
17253;SDS011;32542;52.832;13.816;2022-12-18T17:55:25;9.10;;;6.40;;
17253;SDS011;32542;52.832;13.816;2022-12-18T17:58:29;11.07;;;6.85;;
17253;SDS011;32542;52.832;13.816;2022-12-18T18:01:34;8.98;;;6.13;;
17253;SDS011;32542;52.832;13.816;2022-12-18T18:04:44;9.77;;;6.40;;
17253;SDS011;32542;52.832;13.816;2022-12-18T18:07:47;10.32;;;6.57;;
17253;SDS011;32542;52.832;13.816;2022-12-18T18:10:53;8.05;;;6.35;;
17253;SDS011;32542;52.832;13.816;2022-12-18T18:13:55;7.85;;;6.28;;
17253;SDS011;32542;52.832;13.816;2022-12-18T18:17:06;8.93;;;6.03;;
17253;SDS011;32542;52.832;13.816;2022-12-18T18:20:09;10.95;;;6.70;;
17253;SDS011;32542;52.832;13.816;2022-12-18T18:23:25;10.23;;;6.50;;
17253;SDS011;32542;52.832;13.816;2022-12-18T18:26:31;9.65;;;6.47;;
17253;SDS011;32542;52.832;13.816;2022-12-18T18:29:35;10.55;;;7.07;;
17253;SDS011;32542;52.832;13.816;2022-12-18T18:32:40;10.05;;;6.70;;